^^
Grace C. Lehan Memorial Weather Station Historical Data
Daily Summary for November 18, 2021 Units:  Both    English   Metric
Daily Weekly Monthly Yearly
  High: Low: Average:
Temperature: 50 °F /  10 °C 44.5 °F /  6.9 °C 46.6 °F /  8.1 °C
Dew Point: 48.9 °F /  9.4 °C 42.3 °F /  5.7 °C 44 °F /  6.7 °C
Humidity: 96% 82.6% 91%
Wind Speed: 0mph /  0km/h - 0mph /  0km/h
Wind Gust: 0mph /  0km/h - -
Wind- -
Pressure: 30.10 in /  1019.2 hPa 30.01 in /  1016.1 hPa -
Precipitation: 0.00 in /  0 mm    
 
 
Tabular Data for November 18, 2021
Time Temperature Dew Point Pressure Wind Wind Speed Wind Gust Humidity Rainfall Rate (Hourly) solar
00:04 48.8 °F /  9.3 °C 43.7 °F /  6.5 °C 30.10in /  1019.2hPa Calm     82.6% 0.00in /  0mm 0 W/m2
00:09 48.7 °F /  9.3 °C 43.8 °F /  6.6 °C 30.09in /  1018.8hPa Calm     83% 0.00in /  0mm 0 W/m2
00:14 48.7 °F /  9.3 °C 44 °F /  6.7 °C 30.09in /  1018.8hPa Calm     83.9% 0.00in /  0mm 0 W/m2
00:19 48.6 °F /  9.2 °C 44 °F /  6.7 °C 30.09in /  1018.8hPa Calm     84% 0.00in /  0mm 0 W/m2
00:24 48.5 °F /  9.2 °C 43.9 °F /  6.6 °C 30.09in /  1018.8hPa Calm     84% 0.00in /  0mm 0 W/m2
00:29 48.4 °F /  9.1 °C 43.9 °F /  6.6 °C 30.08in /  1018.5hPa Calm     84.3% 0.00in /  0mm 0 W/m2
00:34 48.3 °F /  9.1 °C 44 °F /  6.7 °C 30.08in /  1018.5hPa Calm     85% 0.00in /  0mm 0 W/m2
00:39 48.2 °F /  9 °C 43.9 °F /  6.6 °C 30.08in /  1018.5hPa Calm     85% 0.00in /  0mm 0 W/m2
00:44 48.2 °F /  9 °C 43.9 °F /  6.6 °C 30.08in /  1018.5hPa Calm     85% 0.00in /  0mm 0 W/m2
00:49 48 °F /  8.9 °C 43.8 °F /  6.6 °C 30.08in /  1018.5hPa Calm     85% 0.00in /  0mm 0 W/m2
00:54 47.9 °F /  8.8 °C 43.7 °F /  6.5 °C 30.08in /  1018.5hPa Calm     85.2% 0.00in /  0mm 0 W/m2
00:59 47.8 °F /  8.8 °C 43.8 °F /  6.6 °C 30.08in /  1018.5hPa Calm     85.8% 0.00in /  0mm 0 W/m2
01:04 47.7 °F /  8.7 °C 43.7 °F /  6.5 °C 30.07in /  1018.2hPa Calm     86% 0.00in /  0mm 0 W/m2
01:09 47.6 °F /  8.7 °C 43.8 °F /  6.6 °C 30.07in /  1018.2hPa Calm     86.7% 0.00in /  0mm 0 W/m2
01:14 47.5 °F /  8.6 °C 43.8 °F /  6.6 °C 30.07in /  1018.2hPa Calm     87% 0.00in /  0mm 0 W/m2
01:19 47.4 °F /  8.6 °C 43.7 °F /  6.5 °C 30.07in /  1018.2hPa Calm     87% 0.00in /  0mm 0 W/m2
01:24 47.3 °F /  8.5 °C 43.6 °F /  6.4 °C 30.07in /  1018.2hPa Calm     87% 0.00in /  0mm 0 W/m2
01:29 47.1 °F /  8.4 °C 43.4 °F /  6.3 °C 30.07in /  1018.2hPa Calm     87% 0.00in /  0mm 0 W/m2
01:34 46.9 °F /  8.3 °C 43.2 °F /  6.2 °C 30.07in /  1018.2hPa Calm     87% 0.00in /  0mm 0 W/m2
01:39 46.8 °F /  8.2 °C 43.3 °F /  6.3 °C 30.07in /  1018.2hPa Calm     87.7% 0.00in /  0mm 0 W/m2
01:44 46.7 °F /  8.2 °C 43.3 °F /  6.3 °C 30.07in /  1018.2hPa Calm     88% 0.00in /  0mm 0 W/m2
01:49 46.7 °F /  8.2 °C 43.3 °F /  6.3 °C 30.07in /  1018.2hPa Calm     88% 0.00in /  0mm 0 W/m2
01:54 46.6 °F /  8.1 °C 43.2 °F /  6.2 °C 30.07in /  1018.2hPa Calm     88% 0.00in /  0mm 0 W/m2
01:59 46.4 °F /  8 °C 43 °F /  6.1 °C 30.07in /  1018.2hPa Calm     88% 0.00in /  0mm 0 W/m2
02:04 46.2 °F /  7.9 °C 42.9 °F /  6.1 °C 30.07in /  1018.2hPa Calm     88% 0.00in /  0mm 0 W/m2
02:09 46.1 °F /  7.8 °C 42.7 °F /  5.9 °C 30.07in /  1018.2hPa Calm     88% 0.00in /  0mm 0 W/m2
02:14 45.9 °F /  7.7 °C 42.8 °F /  6 °C 30.07in /  1018.2hPa Calm     88.9% 0.00in /  0mm 0 W/m2
02:19 45.9 °F /  7.7 °C 42.8 °F /  6 °C 30.07in /  1018.2hPa Calm     89% 0.00in /  0mm 0 W/m2
02:24 45.8 °F /  7.7 °C 42.8 °F /  6 °C 30.07in /  1018.2hPa Calm     89% 0.00in /  0mm 0 W/m2
02:29 45.8 °F /  7.7 °C 42.9 °F /  6.1 °C 30.06in /  1017.8hPa Calm     89.5% 0.00in /  0mm 0 W/m2
02:34 45.7 °F /  7.6 °C 43 °F /  6.1 °C 30.06in /  1017.8hPa Calm     90% 0.00in /  0mm 0 W/m2
02:39 45.6 °F /  7.6 °C 42.9 °F /  6.1 °C 30.06in /  1017.8hPa Calm     90% 0.00in /  0mm 0 W/m2
02:44 45.6 °F /  7.6 °C 42.8 °F /  6 °C 30.06in /  1017.8hPa Calm     90% 0.00in /  0mm 0 W/m2
02:49 45.5 °F /  7.5 °C 42.8 °F /  6 °C 30.06in /  1017.8hPa Calm     90% 0.00in /  0mm 0 W/m2
02:54 45.4 °F /  7.4 °C 42.6 °F /  5.9 °C 30.06in /  1017.8hPa Calm     90% 0.00in /  0mm 0 W/m2
02:59 45.4 °F /  7.4 °C 42.7 °F /  5.9 °C 30.06in /  1017.8hPa Calm     90.2% 0.00in /  0mm 0 W/m2
03:04 45.3 °F /  7.4 °C 42.8 °F /  6 °C 30.05in /  1017.5hPa Calm     91% 0.00in /  0mm 0 W/m2
03:09 45.2 °F /  7.3 °C 42.7 °F /  5.9 °C 30.05in /  1017.5hPa Calm     91% 0.00in /  0mm 0 W/m2
03:14 45.1 °F /  7.3 °C 42.6 °F /  5.9 °C 30.05in /  1017.5hPa Calm     91% 0.00in /  0mm 0 W/m2
03:19 45 °F /  7.2 °C 42.5 °F /  5.8 °C 30.05in /  1017.5hPa Calm     91% 0.00in /  0mm 0 W/m2
03:24 45 °F /  7.2 °C 42.5 °F /  5.8 °C 30.05in /  1017.5hPa Calm     91% 0.00in /  0mm 0 W/m2
03:29 45 °F /  7.2 °C 42.5 °F /  5.8 °C 30.05in /  1017.5hPa Calm     91% 0.00in /  0mm 0 W/m2
03:34 45 °F /  7.2 °C 42.8 °F /  6 °C 30.04in /  1017.2hPa Calm     91.8% 0.00in /  0mm 0 W/m2
03:39 44.9 °F /  7.2 °C 42.5 °F /  5.8 °C 30.04in /  1017.2hPa Calm     91.3% 0.00in /  0mm 0 W/m2
03:44 44.9 °F /  7.2 °C 42.4 °F /  5.8 °C 30.04in /  1017.2hPa Calm     91% 0.00in /  0mm 0 W/m2
03:49 44.8 °F /  7.1 °C 42.4 °F /  5.8 °C 30.04in /  1017.2hPa Calm     91.4% 0.00in /  0mm 0 W/m2
03:54 44.7 °F /  7.1 °C 42.5 °F /  5.8 °C 30.04in /  1017.2hPa Calm     92% 0.00in /  0mm 0 W/m2
03:59 44.7 °F /  7.1 °C 42.5 °F /  5.8 °C 30.04in /  1017.2hPa Calm     92% 0.00in /  0mm 0 W/m2
04:00 44.7 °F /  7.1 °C 42.5 °F /  5.8 °C 30.03in /  1016.8hPa Calm     92% 0.00in /  0mm 0 W/m2
04:09 44.6 °F /  7 °C 42.4 °F /  5.8 °C 30.04in /  1017.2hPa Calm     92% 0.00in /  0mm 0 W/m2
04:14 44.5 °F /  6.9 °C 42.3 °F /  5.7 °C 30.04in /  1017.2hPa Calm     92% 0.00in /  0mm 0 W/m2
04:19 44.5 °F /  6.9 °C 42.3 °F /  5.7 °C 30.04in /  1017.2hPa Calm     92% 0.00in /  0mm 0 W/m2
04:24 44.5 °F /  6.9 °C 42.3 °F /  5.7 °C 30.04in /  1017.2hPa Calm     92% 0.00in /  0mm 0 W/m2
04:29 44.6 °F /  7 °C 42.6 °F /  5.9 °C 30.04in /  1017.2hPa Calm     92.5% 0.00in /  0mm 0 W/m2
04:34 44.8 °F /  7.1 °C 42.9 °F /  6.1 °C 30.04in /  1017.2hPa Calm     93% 0.00in /  0mm 0 W/m2
04:39 44.9 °F /  7.2 °C 43 °F /  6.1 °C 30.04in /  1017.2hPa Calm     93% 0.00in /  0mm 0 W/m2
04:44 44.8 °F /  7.1 °C 42.9 °F /  6.1 °C 30.03in /  1016.8hPa Calm     93% 0.00in /  0mm 0 W/m2
04:49 44.7 °F /  7.1 °C 42.8 °F /  6 °C 30.03in /  1016.8hPa Calm     93% 0.00in /  0mm 0 W/m2
04:54 44.6 °F /  7 °C 42.8 °F /  6 °C 30.03in /  1016.8hPa Calm     93% 0.00in /  0mm 0 W/m2
04:59 44.9 °F /  7.2 °C 43 °F /  6.1 °C 30.03in /  1016.8hPa Calm     93% 0.00in /  0mm 0 W/m2
05:04 45.1 °F /  7.3 °C 43.3 °F /  6.3 °C 30.02in /  1016.5hPa Calm     93.4% 0.00in /  0mm 0 W/m2
05:09 45 °F /  7.2 °C 43.1 °F /  6.2 °C 30.02in /  1016.5hPa Calm     93% 0.00in /  0mm 0 W/m2
05:14 45.1 °F /  7.3 °C 43.2 °F /  6.2 °C 30.02in /  1016.5hPa Calm     93.2% 0.00in /  0mm 0 W/m2
05:19 45.1 °F /  7.3 °C 43.2 °F /  6.2 °C 30.02in /  1016.5hPa Calm     93% 0.00in /  0mm 0 W/m2
05:24 45.2 °F /  7.3 °C 43.6 °F /  6.4 °C 30.02in /  1016.5hPa Calm     94% 0.00in /  0mm 0 W/m2
05:29 45.3 °F /  7.4 °C 43.6 °F /  6.4 °C 30.02in /  1016.5hPa Calm     94% 0.00in /  0mm 0 W/m2
05:34 45.2 °F /  7.3 °C 43.6 °F /  6.4 °C 30.02in /  1016.5hPa Calm     94% 0.00in /  0mm 0 W/m2
05:39 45.2 °F /  7.3 °C 43.5 °F /  6.4 °C 30.02in /  1016.5hPa Calm     94% 0.00in /  0mm 0 W/m2
05:44 45.2 °F /  7.3 °C 43.6 °F /  6.4 °C 30.02in /  1016.5hPa Calm     94% 0.00in /  0mm 0 W/m2
05:49 45.4 °F /  7.4 °C 43.8 °F /  6.6 °C 30.02in /  1016.5hPa Calm     94% 0.00in /  0mm 0 W/m2
05:54 45.5 °F /  7.5 °C 43.9 °F /  6.6 °C 30.02in /  1016.5hPa Calm     94.1% 0.00in /  0mm 0 W/m2
05:59 45.9 °F /  7.7 °C 44.6 °F /  7 °C 30.02in /  1016.5hPa Calm     95% 0.00in /  0mm 0 W/m2
06:04 46.5 °F /  8.1 °C 45.1 °F /  7.3 °C 30.02in /  1016.5hPa Calm     95% 0.00in /  0mm 0 W/m2
06:09 47.2 °F /  8.4 °C 45.8 °F /  7.7 °C 30.02in /  1016.5hPa Calm     95% 0.00in /  0mm 0 W/m2
06:14 48 °F /  8.9 °C 46.8 °F /  8.2 °C 30.02in /  1016.5hPa Calm     95.3% 0.00in /  0mm 0 W/m2
06:19 48.6 °F /  9.2 °C 47.4 °F /  8.6 °C 30.02in /  1016.5hPa Calm     95.8% 0.00in /  0mm 0 W/m2
06:24 48.9 °F /  9.4 °C 47.7 °F /  8.7 °C 30.01in /  1016.1hPa Calm     95.5% 0.00in /  0mm 0 W/m2
06:29 49 °F /  9.4 °C 47.9 °F /  8.8 °C 30.01in /  1016.1hPa Calm     95.8% 0.00in /  0mm 0 W/m2
06:34 49.1 °F /  9.5 °C 47.7 °F /  8.7 °C 30.01in /  1016.1hPa Calm     95% 0.00in /  0mm 0 W/m2
06:39 49.1 °F /  9.5 °C 47.7 °F /  8.7 °C 30.01in /  1016.1hPa Calm     95% 0.00in /  0mm 0 W/m2
06:44 48.8 °F /  9.3 °C 47.4 °F /  8.6 °C 30.01in /  1016.1hPa Calm     95% 0.00in /  0mm 0 W/m2
06:49 48.4 °F /  9.1 °C 47 °F /  8.3 °C 30.01in /  1016.1hPa Calm     95% 0.00in /  0mm 5 W/m2
06:54 48.2 °F /  9 °C 46.8 °F /  8.2 °C 30.01in /  1016.1hPa Calm     95% 0.00in /  0mm 9 W/m2
06:59 48.2 °F /  9 °C 46.9 °F /  8.3 °C 30.01in /  1016.1hPa Calm     95% 0.00in /  0mm 11 W/m2
07:04 48.5 °F /  9.2 °C 47.1 °F /  8.4 °C 30.01in /  1016.1hPa Calm     95% 0.00in /  0mm 14 W/m2
07:09 48.9 °F /  9.4 °C 47.5 °F /  8.6 °C 30.01in /  1016.1hPa Calm     95.1% 0.00in /  0mm 19 W/m2
07:14 49.2 °F /  9.6 °C 48 °F /  8.9 °C 30.01in /  1016.1hPa Calm     95.8% 0.00in /  0mm 21 W/m2
07:19 49.5 °F /  9.7 °C 48.3 °F /  9.1 °C 30.01in /  1016.1hPa Calm     95.7% 0.00in /  0mm 26 W/m2
07:24 49.7 °F /  9.8 °C 48.6 °F /  9.2 °C 30.01in /  1016.1hPa Calm     96% 0.00in /  0mm 40 W/m2
07:29 49.8 °F /  9.9 °C 48.7 °F /  9.3 °C 30.01in /  1016.1hPa Calm     96% 0.00in /  0mm 39 W/m2
07:33 50 °F /  10 °C 48.9 °F /  9.4 °C 30.01in /  1016.1hPa Calm     96% 0.00in /  0mm 40 W/m2
Hartford County Weather
Compliments of Weather Underground - 2 mb